sensor_id;sensor_type;location;lat;lon;timestamp;P1;durP1;ratioP1;P2;durP2;ratioP2
12407;SDS011;6268;48.188;17.134;2023-03-21T00:00:42;8.88;;;8.18;;
12407;SDS011;6268;48.188;17.134;2023-03-21T00:03:11;9.82;;;9.13;;
12407;SDS011;6268;48.188;17.134;2023-03-21T00:05:42;9.57;;;8.60;;
12407;SDS011;6268;48.188;17.134;2023-03-21T00:08:15;9.15;;;8.38;;
12407;SDS011;6268;48.188;17.134;2023-03-21T00:10:44;9.23;;;8.38;;
12407;SDS011;6268;48.188;17.134;2023-03-21T00:13:14;9.30;;;8.50;;
12407;SDS011;6268;48.188;17.134;2023-03-21T00:15:44;9.07;;;8.35;;
12407;SDS011;6268;48.188;17.134;2023-03-21T00:18:35;8.65;;;7.95;;
12407;SDS011;6268;48.188;17.134;2023-03-21T00:21:10;8.88;;;8.18;;
12407;SDS011;6268;48.188;17.134;2023-03-21T00:24:02;9.63;;;8.80;;
12407;SDS011;6268;48.188;17.134;2023-03-21T00:26:33;9.52;;;8.70;;
12407;SDS011;6268;48.188;17.134;2023-03-21T00:29:03;9.10;;;8.50;;
12407;SDS011;6268;48.188;17.134;2023-03-21T00:31:32;9.93;;;9.02;;
12407;SDS011;6268;48.188;17.134;2023-03-21T00:34:01;9.13;;;8.43;;
12407;SDS011;6268;48.188;17.134;2023-03-21T00:36:31;8.95;;;8.35;;
12407;SDS011;6268;48.188;17.134;2023-03-21T00:39:00;8.75;;;7.95;;
12407;SDS011;6268;48.188;17.134;2023-03-21T00:41:31;8.20;;;7.50;;
12407;SDS011;6268;48.188;17.134;2023-03-21T00:44:08;9.02;;;8.32;;
12407;SDS011;6268;48.188;17.134;2023-03-21T00:46:41;8.88;;;8.20;;
12407;SDS011;6268;48.188;17.134;2023-03-21T00:49:30;9.05;;;8.15;;
12407;SDS011;6268;48.188;17.134;2023-03-21T00:52:02;8.30;;;7.70;;
12407;SDS011;6268;48.188;17.134;2023-03-21T00:54:45;9.00;;;8.18;;
12407;SDS011;6268;48.188;17.134;2023-03-21T00:57:14;8.88;;;8.10;;
12407;SDS011;6268;48.188;17.134;2023-03-21T00:59:45;9.15;;;8.35;;
12407;SDS011;6268;48.188;17.134;2023-03-21T01:02:14;8.75;;;7.97;;
12407;SDS011;6268;48.188;17.134;2023-03-21T01:04:48;9.23;;;8.50;;
12407;SDS011;6268;48.188;17.134;2023-03-21T01:07:19;8.45;;;7.85;;
12407;SDS011;6268;48.188;17.134;2023-03-21T01:09:48;9.05;;;8.32;;
12407;SDS011;6268;48.188;17.134;2023-03-21T01:12:17;9.18;;;8.43;;
12407;SDS011;6268;48.188;17.134;2023-03-21T01:14:46;9.23;;;8.52;;
12407;SDS011;6268;48.188;17.134;2023-03-21T01:17:15;9.07;;;8.38;;
12407;SDS011;6268;48.188;17.134;2023-03-21T01:19:43;9.45;;;8.65;;
12407;SDS011;6268;48.188;17.134;2023-03-21T01:22:19;9.05;;;8.40;;
12407;SDS011;6268;48.188;17.134;2023-03-21T01:24:47;9.02;;;8.32;;
12407;SDS011;6268;48.188;17.134;2023-03-21T01:27:25;9.63;;;8.93;;
12407;SDS011;6268;48.188;17.134;2023-03-21T01:29:54;9.10;;;8.25;;
12407;SDS011;6268;48.188;17.134;2023-03-21T01:32:24;9.27;;;8.57;;
12407;SDS011;6268;48.188;17.134;2023-03-21T01:34:52;8.95;;;8.25;;
12407;SDS011;6268;48.188;17.134;2023-03-21T01:37:23;9.10;;;8.32;;
12407;SDS011;6268;48.188;17.134;2023-03-21T01:39:52;9.27;;;8.57;;
12407;SDS011;6268;48.188;17.134;2023-03-21T01:42:20;8.98;;;8.27;;
12407;SDS011;6268;48.188;17.134;2023-03-21T01:44:53;9.93;;;9.13;;
12407;SDS011;6268;48.188;17.134;2023-03-21T01:47:24;8.80;;;8.00;;
12407;SDS011;6268;48.188;17.134;2023-03-21T01:49:54;9.25;;;8.55;;
12407;SDS011;6268;48.188;17.134;2023-03-21T01:52:28;8.82;;;7.95;;
12407;SDS011;6268;48.188;17.134;2023-03-21T01:55:06;8.98;;;8.32;;
12407;SDS011;6268;48.188;17.134;2023-03-21T01:57:39;8.75;;;8.05;;
12407;SDS011;6268;48.188;17.134;2023-03-21T02:00:30;8.10;;;7.50;;
12407;SDS011;6268;48.188;17.134;2023-03-21T02:03:03;8.85;;;8.25;;
12407;SDS011;6268;48.188;17.134;2023-03-21T02:05:48;9.27;;;8.57;;
12407;SDS011;6268;48.188;17.134;2023-03-21T02:08:24;8.38;;;7.70;;
12407;SDS011;6268;48.188;17.134;2023-03-21T02:11:05;8.70;;;7.90;;
12407;SDS011;6268;48.188;17.134;2023-03-21T02:13:36;9.07;;;8.38;;
12407;SDS011;6268;48.188;17.134;2023-03-21T02:16:07;8.95;;;8.25;;
12407;SDS011;6268;48.188;17.134;2023-03-21T02:18:45;8.95;;;8.15;;
12407;SDS011;6268;48.188;17.134;2023-03-21T02:21:31;9.27;;;8.57;;
12407;SDS011;6268;48.188;17.134;2023-03-21T02:24:57;9.15;;;8.27;;
12407;SDS011;6268;48.188;17.134;2023-03-21T02:28:18;9.27;;;8.52;;
12407;SDS011;6268;48.188;17.134;2023-03-21T02:34:08;9.75;;;8.95;;
12407;SDS011;6268;48.188;17.134;2023-03-21T02:37:10;9.82;;;8.98;;
12407;SDS011;6268;48.188;17.134;2023-03-21T02:40:06;10.10;;;9.20;;
12407;SDS011;6268;48.188;17.134;2023-03-21T02:42:43;10.20;;;9.40;;
12407;SDS011;6268;48.188;17.134;2023-03-21T02:45:27;10.05;;;9.27;;
12407;SDS011;6268;48.188;17.134;2023-03-21T02:48:04;10.20;;;9.40;;
12407;SDS011;6268;48.188;17.134;2023-03-21T02:50:54;10.73;;;9.93;;
12407;SDS011;6268;48.188;17.134;2023-03-21T02:53:29;10.57;;;9.68;;
12407;SDS011;6268;48.188;17.134;2023-03-21T02:56:05;10.00;;;9.30;;
12407;SDS011;6268;48.188;17.134;2023-03-21T02:58:37;10.50;;;9.70;;
12407;SDS011;6268;48.188;17.134;2023-03-21T03:01:08;10.65;;;9.70;;
12407;SDS011;6268;48.188;17.134;2023-03-21T03:03:37;10.40;;;9.57;;
12407;SDS011;6268;48.188;17.134;2023-03-21T03:06:07;10.95;;;10.05;;
12407;SDS011;6268;48.188;17.134;2023-03-21T03:11:56;11.30;;;10.40;;
12407;SDS011;6268;48.188;17.134;2023-03-21T03:14:40;11.27;;;10.27;;
12407;SDS011;6268;48.188;17.134;2023-03-21T03:17:34;11.35;;;10.35;;
12407;SDS011;6268;48.188;17.134;2023-03-21T03:20:26;10.55;;;9.75;;
12407;SDS011;6268;48.188;17.134;2023-03-21T03:23:04;9.95;;;9.25;;
12407;SDS011;6268;48.188;17.134;2023-03-21T03:25:48;10.30;;;9.50;;
12407;SDS011;6268;48.188;17.134;2023-03-21T03:28:24;9.93;;;9.13;;
12407;SDS011;6268;48.188;17.134;2023-03-21T03:30:58;10.48;;;9.48;;
12407;SDS011;6268;48.188;17.134;2023-03-21T03:33:35;10.43;;;9.63;;
12407;SDS011;6268;48.188;17.134;2023-03-21T03:36:08;10.77;;;9.88;;
12407;SDS011;6268;48.188;17.134;2023-03-21T03:38:59;10.45;;;9.65;;
12407;SDS011;6268;48.188;17.134;2023-03-21T03:41:34;10.85;;;9.95;;
12407;SDS011;6268;48.188;17.134;2023-03-21T03:44:30;11.23;;;10.20;;
12407;SDS011;6268;48.188;17.134;2023-03-21T03:47:01;10.77;;;9.85;;
12407;SDS011;6268;48.188;17.134;2023-03-21T03:49:45;10.63;;;9.73;;
12407;SDS011;6268;48.188;17.134;2023-03-21T03:52:26;10.82;;;10.02;;
12407;SDS011;6268;48.188;17.134;2023-03-21T03:55:08;9.98;;;9.20;;
12407;SDS011;6268;48.188;17.134;2023-03-21T03:57:42;10.68;;;9.68;;
12407;SDS011;6268;48.188;17.134;2023-03-21T04:00:12;10.80;;;10.00;;
12407;SDS011;6268;48.188;17.134;2023-03-21T04:02:43;11.93;;;10.90;;
12407;SDS011;6268;48.188;17.134;2023-03-21T04:05:12;10.38;;;9.57;;
12407;SDS011;6268;48.188;17.134;2023-03-21T04:07:47;10.85;;;9.95;;
12407;SDS011;6268;48.188;17.134;2023-03-21T04:10:17;11.20;;;10.30;;
12407;SDS011;6268;48.188;17.134;2023-03-21T04:12:49;10.73;;;9.93;;
12407;SDS011;6268;48.188;17.134;2023-03-21T04:15:17;11.35;;;10.50;;
12407;SDS011;6268;48.188;17.134;2023-03-21T04:17:46;11.80;;;10.90;;
12407;SDS011;6268;48.188;17.134;2023-03-21T04:20:19;12.02;;;10.93;;
12407;SDS011;6268;48.188;17.134;2023-03-21T04:23:02;12.80;;;11.60;;
12407;SDS011;6268;48.188;17.134;2023-03-21T04:25:32;12.82;;;11.80;;
12407;SDS011;6268;48.188;17.134;2023-03-21T04:28:07;12.07;;;11.07;;
12407;SDS011;6268;48.188;17.134;2023-03-21T04:30:36;12.27;;;11.30;;
12407;SDS011;6268;48.188;17.134;2023-03-21T04:33:24;12.60;;;11.45;;
12407;SDS011;6268;48.188;17.134;2023-03-21T04:35:52;13.00;;;11.82;;
12407;SDS011;6268;48.188;17.134;2023-03-21T04:38:22;17.02;;;15.43;;
12407;SDS011;6268;48.188;17.134;2023-03-21T04:40:56;13.02;;;11.93;;
12407;SDS011;6268;48.188;17.134;2023-03-21T04:43:26;13.05;;;11.93;;
12407;SDS011;6268;48.188;17.134;2023-03-21T04:45:58;23.15;;;20.80;;
12407;SDS011;6268;48.188;17.134;2023-03-21T04:48:27;21.48;;;19.38;;
12407;SDS011;6268;48.188;17.134;2023-03-21T04:50:56;13.93;;;12.73;;
12407;SDS011;6268;48.188;17.134;2023-03-21T04:53:25;12.07;;;11.10;;
12407;SDS011;6268;48.188;17.134;2023-03-21T04:55:54;12.15;;;11.15;;
12407;SDS011;6268;48.188;17.134;2023-03-21T04:58:27;12.02;;;11.07;;
12407;SDS011;6268;48.188;17.134;2023-03-21T05:00:56;11.77;;;10.77;;
12407;SDS011;6268;48.188;17.134;2023-03-21T05:03:28;13.10;;;11.35;;
12407;SDS011;6268;48.188;17.134;2023-03-21T05:06:00;11.30;;;10.50;;
12407;SDS011;6268;48.188;17.134;2023-03-21T05:08:32;12.05;;;11.02;;
12407;SDS011;6268;48.188;17.134;2023-03-21T05:11:01;11.40;;;10.50;;
12407;SDS011;6268;48.188;17.134;2023-03-21T05:13:32;12.35;;;11.35;;
12407;SDS011;6268;48.188;17.134;2023-03-21T05:16:01;12.88;;;11.70;;
12407;SDS011;6268;48.188;17.134;2023-03-21T05:18:30;13.23;;;12.02;;
12407;SDS011;6268;48.188;17.134;2023-03-21T05:21:00;12.43;;;11.20;;
12407;SDS011;6268;48.188;17.134;2023-03-21T05:23:29;11.88;;;10.98;;
12407;SDS011;6268;48.188;17.134;2023-03-21T05:26:04;12.68;;;11.65;;
12407;SDS011;6268;48.188;17.134;2023-03-21T05:28:35;13.00;;;11.90;;
12407;SDS011;6268;48.188;17.134;2023-03-21T05:31:05;13.15;;;12.05;;
12407;SDS011;6268;48.188;17.134;2023-03-21T05:33:34;13.25;;;12.05;;
12407;SDS011;6268;48.188;17.134;2023-03-21T05:36:03;12.05;;;11.05;;
12407;SDS011;6268;48.188;17.134;2023-03-21T05:38:33;13.55;;;12.30;;
12407;SDS011;6268;48.188;17.134;2023-03-21T05:41:02;11.73;;;10.82;;
12407;SDS011;6268;48.188;17.134;2023-03-21T05:43:32;12.43;;;11.35;;
12407;SDS011;6268;48.188;17.134;2023-03-21T05:46:02;12.45;;;11.35;;
12407;SDS011;6268;48.188;17.134;2023-03-21T05:48:32;11.55;;;10.57;;
12407;SDS011;6268;48.188;17.134;2023-03-21T05:51:01;11.73;;;10.70;;
12407;SDS011;6268;48.188;17.134;2023-03-21T05:53:31;21.15;;;13.05;;
12407;SDS011;6268;48.188;17.134;2023-03-21T05:56:01;13.10;;;10.52;;
12407;SDS011;6268;48.188;17.134;2023-03-21T05:58:30;12.02;;;10.82;;
12407;SDS011;6268;48.188;17.134;2023-03-21T06:01:00;11.98;;;10.65;;
12407;SDS011;6268;48.188;17.134;2023-03-21T06:03:29;12.75;;;11.60;;
12407;SDS011;6268;48.188;17.134;2023-03-21T06:05:58;11.18;;;10.18;;
12407;SDS011;6268;48.188;17.134;2023-03-21T06:08:28;10.25;;;9.45;;
12407;SDS011;6268;48.188;17.134;2023-03-21T06:10:57;10.55;;;9.73;;
12407;SDS011;6268;48.188;17.134;2023-03-21T06:13:29;9.60;;;8.68;;
12407;SDS011;6268;48.188;17.134;2023-03-21T06:15:59;10.25;;;9.45;;
12407;SDS011;6268;48.188;17.134;2023-03-21T06:18:31;9.98;;;9.18;;
12407;SDS011;6268;48.188;17.134;2023-03-21T06:21:01;11.05;;;9.95;;
12407;SDS011;6268;48.188;17.134;2023-03-21T06:23:33;10.05;;;9.20;;
12407;SDS011;6268;48.188;17.134;2023-03-21T06:26:03;9.95;;;9.05;;
12407;SDS011;6268;48.188;17.134;2023-03-21T06:28:32;10.35;;;9.45;;
12407;SDS011;6268;48.188;17.134;2023-03-21T06:31:03;9.68;;;8.85;;
12407;SDS011;6268;48.188;17.134;2023-03-21T06:33:32;10.02;;;9.23;;
12407;SDS011;6268;48.188;17.134;2023-03-21T06:36:01;9.50;;;8.73;;
12407;SDS011;6268;48.188;17.134;2023-03-21T06:38:31;9.65;;;8.75;;
12407;SDS011;6268;48.188;17.134;2023-03-21T06:41:03;9.18;;;8.38;;
12407;SDS011;6268;48.188;17.134;2023-03-21T06:43:34;9.38;;;8.57;;
12407;SDS011;6268;48.188;17.134;2023-03-21T06:46:05;8.77;;;8.02;;
12407;SDS011;6268;48.188;17.134;2023-03-21T06:48:34;9.23;;;8.40;;
12407;SDS011;6268;48.188;17.134;2023-03-21T06:51:05;8.55;;;7.90;;
12407;SDS011;6268;48.188;17.134;2023-03-21T06:53:34;8.25;;;6.35;;
12407;SDS011;6268;48.188;17.134;2023-03-21T06:56:07;9.23;;;8.43;;
12407;SDS011;6268;48.188;17.134;2023-03-21T06:58:38;9.10;;;8.40;;
12407;SDS011;6268;48.188;17.134;2023-03-21T07:01:09;8.70;;;8.00;;
12407;SDS011;6268;48.188;17.134;2023-03-21T07:03:40;8.43;;;7.80;;
12407;SDS011;6268;48.188;17.134;2023-03-21T07:06:09;8.63;;;7.90;;
12407;SDS011;6268;48.188;17.134;2023-03-21T07:08:40;9.27;;;8.10;;
12407;SDS011;6268;48.188;17.134;2023-03-21T07:11:09;7.05;;;6.45;;
12407;SDS011;6268;48.188;17.134;2023-03-21T07:13:38;5.93;;;5.38;;
12407;SDS011;6268;48.188;17.134;2023-03-21T07:16:07;7.13;;;6.63;;
12407;SDS011;6268;48.188;17.134;2023-03-21T07:18:38;8.10;;;6.65;;
12407;SDS011;6268;48.188;17.134;2023-03-21T07:21:07;6.80;;;6.13;;
12407;SDS011;6268;48.188;17.134;2023-03-21T07:23:36;6.32;;;5.80;;
12407;SDS011;6268;48.188;17.134;2023-03-21T07:26:05;7.20;;;6.60;;
12407;SDS011;6268;48.188;17.134;2023-03-21T07:28:34;6.93;;;6.25;;
12407;SDS011;6268;48.188;17.134;2023-03-21T07:31:04;6.32;;;5.75;;
12407;SDS011;6268;48.188;17.134;2023-03-21T07:33:36;7.95;;;6.30;;
12407;SDS011;6268;48.188;17.134;2023-03-21T07:36:07;6.97;;;6.47;;
12407;SDS011;6268;48.188;17.134;2023-03-21T07:38:39;7.28;;;6.65;;
12407;SDS011;6268;48.188;17.134;2023-03-21T07:41:08;6.05;;;5.50;;
12407;SDS011;6268;48.188;17.134;2023-03-21T07:43:37;6.80;;;6.30;;
12407;SDS011;6268;48.188;17.134;2023-03-21T07:46:06;6.32;;;5.68;;
12407;SDS011;6268;48.188;17.134;2023-03-21T07:48:36;6.60;;;5.38;;
12407;SDS011;6268;48.188;17.134;2023-03-21T07:51:06;6.47;;;6.00;;
12407;SDS011;6268;48.188;17.134;2023-03-21T07:53:35;6.63;;;6.03;;
12407;SDS011;6268;48.188;17.134;2023-03-21T07:56:04;6.82;;;6.22;;
12407;SDS011;6268;48.188;17.134;2023-03-21T07:58:33;6.40;;;5.90;;
12407;SDS011;6268;48.188;17.134;2023-03-21T08:01:02;5.40;;;4.95;;
12407;SDS011;6268;48.188;17.134;2023-03-21T08:03:31;6.38;;;5.97;;
12407;SDS011;6268;48.188;17.134;2023-03-21T08:06:01;6.60;;;6.07;;
12407;SDS011;6268;48.188;17.134;2023-03-21T08:08:30;6.93;;;6.47;;
12407;SDS011;6268;48.188;17.134;2023-03-21T08:10:59;6.80;;;6.20;;
12407;SDS011;6268;48.188;17.134;2023-03-21T08:13:28;7.47;;;6.78;;
12407;SDS011;6268;48.188;17.134;2023-03-21T08:15:57;6.35;;;5.85;;
12407;SDS011;6268;48.188;17.134;2023-03-21T08:18:26;7.00;;;6.50;;
12407;SDS011;6268;48.188;17.134;2023-03-21T08:20:55;9.20;;;7.90;;
12407;SDS011;6268;48.188;17.134;2023-03-21T08:23:26;7.45;;;6.78;;
12407;SDS011;6268;48.188;17.134;2023-03-21T08:25:55;6.63;;;6.05;;
12407;SDS011;6268;48.188;17.134;2023-03-21T08:28:24;7.22;;;5.20;;
12407;SDS011;6268;48.188;17.134;2023-03-21T08:30:53;6.60;;;6.03;;
12407;SDS011;6268;48.188;17.134;2023-03-21T08:33:22;6.97;;;6.43;;
12407;SDS011;6268;48.188;17.134;2023-03-21T08:35:50;6.57;;;6.07;;
12407;SDS011;6268;48.188;17.134;2023-03-21T08:38:19;5.28;;;4.80;;
12407;SDS011;6268;48.188;17.134;2023-03-21T08:40:50;6.32;;;5.82;;
12407;SDS011;6268;48.188;17.134;2023-03-21T08:43:19;5.82;;;5.35;;
12407;SDS011;6268;48.188;17.134;2023-03-21T08:45:47;5.95;;;5.32;;
12407;SDS011;6268;48.188;17.134;2023-03-21T08:48:17;6.75;;;6.25;;
12407;SDS011;6268;48.188;17.134;2023-03-21T08:50:46;6.35;;;5.82;;
12407;SDS011;6268;48.188;17.134;2023-03-21T08:53:15;7.25;;;6.55;;
12407;SDS011;6268;48.188;17.134;2023-03-21T08:55:44;7.68;;;6.40;;
12407;SDS011;6268;48.188;17.134;2023-03-21T08:58:15;7.18;;;6.57;;
12407;SDS011;6268;48.188;17.134;2023-03-21T09:00:44;6.20;;;5.50;;
12407;SDS011;6268;48.188;17.134;2023-03-21T09:03:13;5.82;;;5.43;;
12407;SDS011;6268;48.188;17.134;2023-03-21T09:05:42;6.25;;;5.65;;
12407;SDS011;6268;48.188;17.134;2023-03-21T09:08:12;6.60;;;6.00;;
12407;SDS011;6268;48.188;17.134;2023-03-21T09:10:40;8.23;;;5.10;;
12407;SDS011;6268;48.188;17.134;2023-03-21T09:13:09;7.07;;;5.45;;
12407;SDS011;6268;48.188;17.134;2023-03-21T09:15:39;6.43;;;5.82;;
12407;SDS011;6268;48.188;17.134;2023-03-21T09:18:08;6.15;;;5.65;;
12407;SDS011;6268;48.188;17.134;2023-03-21T09:20:47;5.63;;;4.38;;
12407;SDS011;6268;48.188;17.134;2023-03-21T09:23:17;5.63;;;4.65;;
12407;SDS011;6268;48.188;17.134;2023-03-21T09:25:47;5.13;;;4.60;;
12407;SDS011;6268;48.188;17.134;2023-03-21T09:28:15;6.50;;;5.13;;
12407;SDS011;6268;48.188;17.134;2023-03-21T09:30:46;4.25;;;3.85;;
12407;SDS011;6268;48.188;17.134;2023-03-21T09:33:15;5.53;;;5.03;;
12407;SDS011;6268;48.188;17.134;2023-03-21T09:35:46;6.35;;;5.57;;
12407;SDS011;6268;48.188;17.134;2023-03-21T09:38:17;5.10;;;4.70;;
12407;SDS011;6268;48.188;17.134;2023-03-21T09:40:50;5.05;;;4.65;;
12407;SDS011;6268;48.188;17.134;2023-03-21T09:43:35;4.95;;;4.50;;
12407;SDS011;6268;48.188;17.134;2023-03-21T09:46:23;5.13;;;4.63;;
12407;SDS011;6268;48.188;17.134;2023-03-21T09:49:02;4.28;;;3.88;;
12407;SDS011;6268;48.188;17.134;2023-03-21T09:51:37;3.97;;;3.58;;
12407;SDS011;6268;48.188;17.134;2023-03-21T09:54:12;7.85;;;4.50;;
12407;SDS011;6268;48.188;17.134;2023-03-21T09:56:48;5.13;;;4.65;;
12407;SDS011;6268;48.188;17.134;2023-03-21T09:59:23;4.65;;;4.22;;
12407;SDS011;6268;48.188;17.134;2023-03-21T10:02:03;4.90;;;4.40;;
12407;SDS011;6268;48.188;17.134;2023-03-21T10:04:57;5.18;;;4.78;;
12407;SDS011;6268;48.188;17.134;2023-03-21T10:07:27;5.18;;;4.38;;
12407;SDS011;6268;48.188;17.134;2023-03-21T10:10:02;7.13;;;3.88;;
12407;SDS011;6268;48.188;17.134;2023-03-21T10:12:32;4.82;;;4.53;;
12407;SDS011;6268;48.188;17.134;2023-03-21T10:15:02;4.47;;;4.18;;
12407;SDS011;6268;48.188;17.134;2023-03-21T10:17:39;5.10;;;4.10;;
12407;SDS011;6268;48.188;17.134;2023-03-21T10:20:14;4.68;;;3.50;;
12407;SDS011;6268;48.188;17.134;2023-03-21T10:22:47;3.85;;;3.45;;
12407;SDS011;6268;48.188;17.134;2023-03-21T10:25:20;6.03;;;3.20;;
12407;SDS011;6268;48.188;17.134;2023-03-21T10:27:55;5.47;;;3.53;;
12407;SDS011;6268;48.188;17.134;2023-03-21T10:30:27;2.88;;;2.67;;
12407;SDS011;6268;48.188;17.134;2023-03-21T10:33:06;3.40;;;3.20;;
12407;SDS011;6268;48.188;17.134;2023-03-21T10:35:40;3.40;;;3.10;;
12407;SDS011;6268;48.188;17.134;2023-03-21T10:38:16;1.88;;;1.77;;
12407;SDS011;6268;48.188;17.134;2023-03-21T10:40:47;2.70;;;2.47;;
12407;SDS011;6268;48.188;17.134;2023-03-21T10:43:18;3.15;;;2.28;;
12407;SDS011;6268;48.188;17.134;2023-03-21T10:46:08;2.28;;;2.08;;
12407;SDS011;6268;48.188;17.134;2023-03-21T10:48:46;2.58;;;1.80;;
12407;SDS011;6268;48.188;17.134;2023-03-21T10:51:21;3.17;;;2.55;;
12407;SDS011;6268;48.188;17.134;2023-03-21T10:53:55;2.65;;;2.45;;
12407;SDS011;6268;48.188;17.134;2023-03-21T10:56:28;2.58;;;2.38;;
12407;SDS011;6268;48.188;17.134;2023-03-21T10:59:02;5.07;;;2.88;;
12407;SDS011;6268;48.188;17.134;2023-03-21T11:01:36;2.60;;;2.50;;
12407;SDS011;6268;48.188;17.134;2023-03-21T11:04:13;2.38;;;2.28;;
12407;SDS011;6268;48.188;17.134;2023-03-21T11:06:49;2.65;;;2.45;;
12407;SDS011;6268;48.188;17.134;2023-03-21T11:09:23;2.83;;;2.63;;
12407;SDS011;6268;48.188;17.134;2023-03-21T11:11:53;3.22;;;2.92;;
12407;SDS011;6268;48.188;17.134;2023-03-21T11:14:32;2.55;;;2.45;;
12407;SDS011;6268;48.188;17.134;2023-03-21T11:17:21;4.00;;;2.05;;
12407;SDS011;6268;48.188;17.134;2023-03-21T11:19:57;2.47;;;2.35;;
12407;SDS011;6268;48.188;17.134;2023-03-21T11:22:36;2.40;;;2.15;;
12407;SDS011;6268;48.188;17.134;2023-03-21T11:25:09;2.92;;;2.42;;
12407;SDS011;6268;48.188;17.134;2023-03-21T11:27:52;3.75;;;2.95;;
12407;SDS011;6268;48.188;17.134;2023-03-21T11:30:23;2.80;;;2.53;;
12407;SDS011;6268;48.188;17.134;2023-03-21T11:32:55;4.35;;;3.95;;
12407;SDS011;6268;48.188;17.134;2023-03-21T11:35:33;3.25;;;2.50;;
12407;SDS011;6268;48.188;17.134;2023-03-21T11:38:06;2.63;;;2.47;;
12407;SDS011;6268;48.188;17.134;2023-03-21T11:40:55;3.60;;;2.72;;
12407;SDS011;6268;48.188;17.134;2023-03-21T11:43:27;2.47;;;2.28;;
12407;SDS011;6268;48.188;17.134;2023-03-21T11:45:59;2.05;;;1.70;;
12407;SDS011;6268;48.188;17.134;2023-03-21T11:48:35;2.00;;;1.90;;
12407;SDS011;6268;48.188;17.134;2023-03-21T11:51:16;4.25;;;1.75;;
12407;SDS011;6268;48.188;17.134;2023-03-21T11:53:55;3.45;;;2.08;;
12407;SDS011;6268;48.188;17.134;2023-03-21T11:56:33;1.77;;;1.50;;
12407;SDS011;6268;48.188;17.134;2023-03-21T11:59:12;2.65;;;2.10;;
12407;SDS011;6268;48.188;17.134;2023-03-21T12:02:20;4.82;;;1.90;;
12407;SDS011;6268;48.188;17.134;2023-03-21T12:05:22;2.40;;;2.20;;
12407;SDS011;6268;48.188;17.134;2023-03-21T12:08:00;3.63;;;1.55;;
12407;SDS011;6268;48.188;17.134;2023-03-21T12:10:41;4.07;;;1.95;;
12407;SDS011;6268;48.188;17.134;2023-03-21T12:13:23;1.77;;;1.67;;
12407;SDS011;6268;48.188;17.134;2023-03-21T12:16:14;2.45;;;2.00;;
12407;SDS011;6268;48.188;17.134;2023-03-21T12:19:09;1.95;;;1.85;;
12407;SDS011;6268;48.188;17.134;2023-03-21T12:22:01;2.20;;;2.00;;
12407;SDS011;6268;48.188;17.134;2023-03-21T12:24:40;1.75;;;1.60;;
12407;SDS011;6268;48.188;17.134;2023-03-21T12:27:18;2.42;;;2.05;;
12407;SDS011;6268;48.188;17.134;2023-03-21T12:30:10;2.78;;;1.77;;
12407;SDS011;6268;48.188;17.134;2023-03-21T12:32:58;2.92;;;2.20;;
12407;SDS011;6268;48.188;17.134;2023-03-21T12:35:44;2.00;;;1.90;;
12407;SDS011;6268;48.188;17.134;2023-03-21T12:38:35;1.80;;;1.70;;
12407;SDS011;6268;48.188;17.134;2023-03-21T12:44:10;1.92;;;1.73;;
12407;SDS011;6268;48.188;17.134;2023-03-21T12:46:43;2.25;;;1.63;;
12407;SDS011;6268;48.188;17.134;2023-03-21T12:49:20;1.92;;;1.65;;
12407;SDS011;6268;48.188;17.134;2023-03-21T12:51:58;4.30;;;1.80;;
12407;SDS011;6268;48.188;17.134;2023-03-21T12:54:35;1.80;;;1.70;;
12407;SDS011;6268;48.188;17.134;2023-03-21T12:57:10;1.58;;;1.42;;
12407;SDS011;6268;48.188;17.134;2023-03-21T12:59:48;2.92;;;1.90;;
12407;SDS011;6268;48.188;17.134;2023-03-21T13:02:27;1.95;;;1.85;;
12407;SDS011;6268;48.188;17.134;2023-03-21T13:05:01;1.75;;;1.65;;
12407;SDS011;6268;48.188;17.134;2023-03-21T13:07:38;1.58;;;1.48;;
12407;SDS011;6268;48.188;17.134;2023-03-21T13:10:11;3.80;;;1.85;;
12407;SDS011;6268;48.188;17.134;2023-03-21T13:12:54;2.25;;;1.42;;
12407;SDS011;6268;48.188;17.134;2023-03-21T13:18:47;3.13;;;1.30;;
12407;SDS011;6268;48.188;17.134;2023-03-21T13:21:33;4.60;;;2.38;;
12407;SDS011;6268;48.188;17.134;2023-03-21T13:24:22;2.28;;;1.50;;
12407;SDS011;6268;48.188;17.134;2023-03-21T13:26:57;2.05;;;1.50;;
12407;SDS011;6268;48.188;17.134;2023-03-21T13:29:40;3.75;;;1.80;;
12407;SDS011;6268;48.188;17.134;2023-03-21T13:32:15;1.80;;;1.65;;
12407;SDS011;6268;48.188;17.134;2023-03-21T13:34:55;2.85;;;1.45;;
12407;SDS011;6268;48.188;17.134;2023-03-21T13:37:28;1.63;;;1.52;;
12407;SDS011;6268;48.188;17.134;2023-03-21T13:40:03;1.77;;;1.20;;
12407;SDS011;6268;48.188;17.134;2023-03-21T13:42:49;1.63;;;1.52;;
12407;SDS011;6268;48.188;17.134;2023-03-21T13:45:26;4.38;;;1.38;;
12407;SDS011;6268;48.188;17.134;2023-03-21T13:47:59;2.13;;;1.92;;
12407;SDS011;6268;48.188;17.134;2023-03-21T13:50:35;2.90;;;1.70;;
12407;SDS011;6268;48.188;17.134;2023-03-21T13:53:23;1.70;;;1.60;;
12407;SDS011;6268;48.188;17.134;2023-03-21T13:55:59;3.33;;;1.58;;
12407;SDS011;6268;48.188;17.134;2023-03-21T13:58:58;1.55;;;1.27;;
12407;SDS011;6268;48.188;17.134;2023-03-21T14:01:34;1.70;;;1.60;;
12407;SDS011;6268;48.188;17.134;2023-03-21T14:04:11;2.67;;;1.55;;
12407;SDS011;6268;48.188;17.134;2023-03-21T14:06:47;1.80;;;1.70;;
12407;SDS011;6268;48.188;17.134;2023-03-21T14:09:26;2.40;;;1.88;;
12407;SDS011;6268;48.188;17.134;2023-03-21T14:11:59;3.42;;;2.00;;
12407;SDS011;6268;48.188;17.134;2023-03-21T14:14:36;5.68;;;2.85;;
12407;SDS011;6268;48.188;17.134;2023-03-21T14:17:14;2.05;;;1.95;;
12407;SDS011;6268;48.188;17.134;2023-03-21T14:19:51;2.83;;;1.80;;
12407;SDS011;6268;48.188;17.134;2023-03-21T14:22:22;2.10;;;2.00;;
12407;SDS011;6268;48.188;17.134;2023-03-21T14:24:54;2.22;;;1.95;;
12407;SDS011;6268;48.188;17.134;2023-03-21T14:27:24;1.48;;;1.38;;
12407;SDS011;6268;48.188;17.134;2023-03-21T14:29:58;1.23;;;1.10;;
12407;SDS011;6268;48.188;17.134;2023-03-21T14:32:30;2.75;;;1.33;;
12407;SDS011;6268;48.188;17.134;2023-03-21T14:34:59;1.27;;;1.17;;
12407;SDS011;6268;48.188;17.134;2023-03-21T14:37:31;2.40;;;2.20;;
12407;SDS011;6268;48.188;17.134;2023-03-21T14:40:07;1.40;;;1.10;;
12407;SDS011;6268;48.188;17.134;2023-03-21T14:42:48;3.25;;;1.25;;
12407;SDS011;6268;48.188;17.134;2023-03-21T14:45:18;1.67;;;1.52;;
12407;SDS011;6268;48.188;17.134;2023-03-21T14:47:54;3.03;;;2.50;;
12407;SDS011;6268;48.188;17.134;2023-03-21T14:50:27;1.30;;;1.20;;
12407;SDS011;6268;48.188;17.134;2023-03-21T14:53:06;1.25;;;1.23;;
12407;SDS011;6268;48.188;17.134;2023-03-21T14:55:43;1.20;;;1.20;;
12407;SDS011;6268;48.188;17.134;2023-03-21T14:58:19;1.85;;;1.50;;
12407;SDS011;6268;48.188;17.134;2023-03-21T15:00:49;1.23;;;1.10;;
12407;SDS011;6268;48.188;17.134;2023-03-21T15:03:22;1.83;;;1.55;;
12407;SDS011;6268;48.188;17.134;2023-03-21T15:05:53;1.65;;;1.40;;
12407;SDS011;6268;48.188;17.134;2023-03-21T15:08:24;2.78;;;1.60;;
12407;SDS011;6268;48.188;17.134;2023-03-21T15:10:55;1.70;;;1.60;;
12407;SDS011;6268;48.188;17.134;2023-03-21T15:13:33;1.55;;;1.45;;
12407;SDS011;6268;48.188;17.134;2023-03-21T15:16:07;1.40;;;1.30;;
12407;SDS011;6268;48.188;17.134;2023-03-21T15:18:41;5.03;;;1.50;;
12407;SDS011;6268;48.188;17.134;2023-03-21T15:21:12;2.83;;;1.27;;
12407;SDS011;6268;48.188;17.134;2023-03-21T15:23:49;1.52;;;1.33;;
12407;SDS011;6268;48.188;17.134;2023-03-21T15:26:23;3.22;;;1.67;;
12407;SDS011;6268;48.188;17.134;2023-03-21T15:28:54;2.00;;;1.35;;
12407;SDS011;6268;48.188;17.134;2023-03-21T15:31:27;1.00;;;1.00;;
12407;SDS011;6268;48.188;17.134;2023-03-21T15:34:03;3.42;;;1.42;;
12407;SDS011;6268;48.188;17.134;2023-03-21T15:36:34;1.08;;;0.98;;
12407;SDS011;6268;48.188;17.134;2023-03-21T15:39:11;1.30;;;1.23;;